sensor_id;sensor_type;location;lat;lon;timestamp;pressure;altitude;pressure_sealevel;temperature;humidity
11172;BME280;5642;50.830;12.082;2024-03-08T00:01:00;99927.81;;;3.67;39.84
11172;BME280;5642;50.830;12.082;2024-03-08T00:03:27;99947.72;;;3.75;40.15
11172;BME280;5642;50.830;12.082;2024-03-08T00:05:56;99937.34;;;3.74;39.75
11172;BME280;5642;50.830;12.082;2024-03-08T00:08:23;99929.50;;;3.65;39.80
11172;BME280;5642;50.830;12.082;2024-03-08T00:10:49;99928.63;;;3.60;40.29
11172;BME280;5642;50.830;12.082;2024-03-08T00:13:18;99929.50;;;3.63;39.90
11172;BME280;5642;50.830;12.082;2024-03-08T00:15:44;99918.25;;;3.53;40.55
11172;BME280;5642;50.830;12.082;2024-03-08T00:18:11;99901.78;;;3.39;39.95
11172;BME280;5642;50.830;12.082;2024-03-08T00:20:38;99907.81;;;3.38;40.18
11172;BME280;5642;50.830;12.082;2024-03-08T00:23:06;99920.75;;;3.43;39.96
11172;BME280;5642;50.830;12.082;2024-03-08T00:25:33;99925.97;;;3.46;40.03
11172;BME280;5642;50.830;12.082;2024-03-08T00:28:01;99900.88;;;3.33;40.57
11172;BME280;5642;50.830;12.082;2024-03-08T00:30:27;99861.91;;;3.05;40.04
11172;BME280;5642;50.830;12.082;2024-03-08T00:32:54;99912.97;;;3.32;40.10
11172;BME280;5642;50.830;12.082;2024-03-08T00:35:21;99918.13;;;3.31;40.12
11172;BME280;5642;50.830;12.082;2024-03-08T00:37:49;99917.22;;;3.27;40.51
11172;BME280;5642;50.830;12.082;2024-03-08T00:40:17;99918.09;;;3.29;40.05
11172;BME280;5642;50.830;12.082;2024-03-08T00:42:44;99912.03;;;3.24;40.18
11172;BME280;5642;50.830;12.082;2024-03-08T00:45:10;99893.88;;;3.17;40.33
11172;BME280;5642;50.830;12.082;2024-03-08T00:47:38;99915.50;;;3.28;40.26
11172;BME280;5642;50.830;12.082;2024-03-08T00:50:04;99886.03;;;3.06;40.37
11172;BME280;5642;50.830;12.082;2024-03-08T00:52:31;99912.84;;;3.15;40.34
11172;BME280;5642;50.830;12.082;2024-03-08T00:54:57;99911.94;;;3.09;40.43
11172;BME280;5642;50.830;12.082;2024-03-08T00:57:24;99892.88;;;2.95;40.55
11172;BME280;5642;50.830;12.082;2024-03-08T00:59:52;99913.66;;;3.07;40.47
11172;BME280;5642;50.830;12.082;2024-03-08T01:02:18;99912.78;;;3.05;40.65
11172;BME280;5642;50.830;12.082;2024-03-08T01:04:44;99886.81;;;2.90;40.47
11172;BME280;5642;50.830;12.082;2024-03-08T01:07:12;99885.91;;;2.88;40.45
11172;BME280;5642;50.830;12.082;2024-03-08T01:09:39;99795.88;;;2.33;40.41
11172;BME280;5642;50.830;12.082;2024-03-08T01:12:06;99887.69;;;2.90;40.58
11172;BME280;5642;50.830;12.082;2024-03-08T01:14:33;99827.06;;;2.55;40.33
11172;BME280;5642;50.830;12.082;2024-03-08T01:16:59;99882.47;;;2.87;40.47
11172;BME280;5642;50.830;12.082;2024-03-08T01:19:26;99883.31;;;2.86;40.65
11172;BME280;5642;50.830;12.082;2024-03-08T01:21:53;99832.19;;;2.50;40.51
11172;BME280;5642;50.830;12.082;2024-03-08T01:24:23;99880.66;;;2.75;40.94
11172;BME280;5642;50.830;12.082;2024-03-08T01:26:50;99839.13;;;2.54;40.78
11172;BME280;5642;50.830;12.082;2024-03-08T01:29:16;99899.72;;;2.88;40.43
11172;BME280;5642;50.830;12.082;2024-03-08T01:31:44;99881.63;;;2.88;40.85
11172;BME280;5642;50.830;12.082;2024-03-08T01:34:11;99881.59;;;2.85;40.63
11172;BME280;5642;50.830;12.082;2024-03-08T01:36:38;99790.69;;;2.32;40.81
11172;BME280;5642;50.830;12.082;2024-03-08T01:39:04;99806.22;;;2.36;40.81
11172;BME280;5642;50.830;12.082;2024-03-08T01:41:34;99874.63;;;2.78;40.62
11172;BME280;5642;50.830;12.082;2024-03-08T01:44:03;99880.69;;;2.79;40.47
11172;BME280;5642;50.830;12.082;2024-03-08T01:46:31;99857.25;;;2.59;40.43
11172;BME280;5642;50.830;12.082;2024-03-08T01:48:59;99849.47;;;2.53;40.72
11172;BME280;5642;50.830;12.082;2024-03-08T01:51:28;99863.28;;;2.59;40.72
11172;BME280;5642;50.830;12.082;2024-03-08T01:53:55;99871.06;;;2.61;41.03
11172;BME280;5642;50.830;12.082;2024-03-08T01:56:24;99841.69;;;2.48;40.86
11172;BME280;5642;50.830;12.082;2024-03-08T01:58:52;99847.69;;;2.49;40.79
11172;BME280;5642;50.830;12.082;2024-03-08T02:01:19;99839.00;;;2.42;40.75
11172;BME280;5642;50.830;12.082;2024-03-08T02:03:46;99864.13;;;2.54;40.72
11172;BME280;5642;50.830;12.082;2024-03-08T02:06:13;99858.03;;;2.50;40.92
11172;BME280;5642;50.830;12.082;2024-03-08T02:08:44;99840.69;;;2.34;40.62
11172;BME280;5642;50.830;12.082;2024-03-08T02:11:12;99842.41;;;2.35;41.20
11172;BME280;5642;50.830;12.082;2024-03-08T02:13:39;99854.50;;;2.38;40.72
11172;BME280;5642;50.830;12.082;2024-03-08T02:16:05;99835.50;;;2.31;40.77
11172;BME280;5642;50.830;12.082;2024-03-08T02:18:35;99850.25;;;2.44;41.05
11172;BME280;5642;50.830;12.082;2024-03-08T02:21:04;99850.25;;;2.46;40.86
11172;BME280;5642;50.830;12.082;2024-03-08T02:23:32;99834.66;;;2.36;40.74
11172;BME280;5642;50.830;12.082;2024-03-08T02:25:59;99850.22;;;2.43;40.39
11172;BME280;5642;50.830;12.082;2024-03-08T02:28:27;99811.31;;;2.24;40.88
11172;BME280;5642;50.830;12.082;2024-03-08T02:30:54;99836.38;;;2.34;41.16
11172;BME280;5642;50.830;12.082;2024-03-08T02:33:22;99836.41;;;2.39;41.16
11172;BME280;5642;50.830;12.082;2024-03-08T02:35:50;99837.22;;;2.32;40.88
11172;BME280;5642;50.830;12.082;2024-03-08T02:38:20;99822.53;;;2.26;40.77
11172;BME280;5642;50.830;12.082;2024-03-08T02:40:48;99805.22;;;2.18;41.13
11172;BME280;5642;50.830;12.082;2024-03-08T02:43:17;99803.47;;;2.15;40.77
11172;BME280;5642;50.830;12.082;2024-03-08T02:45:44;99824.19;;;2.21;41.16
11172;BME280;5642;50.830;12.082;2024-03-08T02:48:12;99834.56;;;2.23;41.30
11172;BME280;5642;50.830;12.082;2024-03-08T02:50:39;99826.72;;;2.14;41.20
11172;BME280;5642;50.830;12.082;2024-03-08T02:53:08;99827.59;;;2.16;41.03
11172;BME280;5642;50.830;12.082;2024-03-08T02:55:36;99824.13;;;2.12;41.50
11172;BME280;5642;50.830;12.082;2024-03-08T02:58:04;99814.53;;;2.01;41.32
11172;BME280;5642;50.830;12.082;2024-03-08T03:00:31;99837.06;;;2.15;41.24
11172;BME280;5642;50.830;12.082;2024-03-08T03:02:58;99833.59;;;2.13;41.16
11172;BME280;5642;50.830;12.082;2024-03-08T03:05:25;99786.03;;;1.90;41.41
11172;BME280;5642;50.830;12.082;2024-03-08T03:07:53;99823.22;;;2.07;41.10
11172;BME280;5642;50.830;12.082;2024-03-08T03:10:20;99822.34;;;2.08;41.11
11172;BME280;5642;50.830;12.082;2024-03-08T03:12:48;99818.91;;;2.08;41.38
11172;BME280;5642;50.830;12.082;2024-03-08T03:15:15;99828.50;;;2.19;41.20
11172;BME280;5642;50.830;12.082;2024-03-08T03:17:50;99777.44;;;1.94;40.80
11172;BME280;5642;50.830;12.082;2024-03-08T03:20:18;99827.66;;;2.22;40.95
11172;BME280;5642;50.830;12.082;2024-03-08T03:22:54;99827.66;;;2.22;41.08
11172;BME280;5642;50.830;12.082;2024-03-08T03:25:23;99775.69;;;1.90;41.08
11172;BME280;5642;50.830;12.082;2024-03-08T03:27:53;99818.97;;;2.15;40.96
11172;BME280;5642;50.830;12.082;2024-03-08T03:30:24;99812.94;;;2.12;41.09
11172;BME280;5642;50.830;12.082;2024-03-08T03:32:53;99789.50;;;1.93;41.11
11172;BME280;5642;50.830;12.082;2024-03-08T03:35:27;99768.69;;;1.78;41.02
11172;BME280;5642;50.830;12.082;2024-03-08T03:37:55;99823.22;;;2.07;41.37
11172;BME280;5642;50.830;12.082;2024-03-08T03:40:34;99825.81;;;2.06;41.62
11172;BME280;5642;50.830;12.082;2024-03-08T03:43:02;99818.00;;;2.03;41.40
11172;BME280;5642;50.830;12.082;2024-03-08T03:45:30;99785.13;;;1.83;40.91
11172;BME280;5642;50.830;12.082;2024-03-08T03:48:02;99819.72;;;2.02;41.03
11172;BME280;5642;50.830;12.082;2024-03-08T03:50:29;99819.72;;;2.02;41.16
11172;BME280;5642;50.830;12.082;2024-03-08T03:52:55;99731.47;;;1.53;41.23
11172;BME280;5642;50.830;12.082;2024-03-08T03:55:21;99798.13;;;1.95;41.39
11172;BME280;5642;50.830;12.082;2024-03-08T03:57:48;99808.53;;;2.02;41.00
11172;BME280;5642;50.830;12.082;2024-03-08T04:00:16;99813.72;;;2.05;41.29
11172;BME280;5642;50.830;12.082;2024-03-08T04:02:43;99806.81;;;2.02;41.32
11172;BME280;5642;50.830;12.082;2024-03-08T04:05:10;99813.66;;;2.00;41.00
11172;BME280;5642;50.830;12.082;2024-03-08T04:07:38;99760.00;;;1.69;41.24
11172;BME280;5642;50.830;12.082;2024-03-08T04:10:06;99799.88;;;1.96;41.16
11172;BME280;5642;50.830;12.082;2024-03-08T04:12:34;99798.97;;;1.94;41.50
11172;BME280;5642;50.830;12.082;2024-03-08T04:15:01;99806.72;;;1.93;41.11
11172;BME280;5642;50.830;12.082;2024-03-08T04:17:28;99801.50;;;1.88;41.48
11172;BME280;5642;50.830;12.082;2024-03-08T04:19:55;99792.84;;;1.85;41.06
11172;BME280;5642;50.830;12.082;2024-03-08T04:22:23;99785.94;;;1.81;41.08
11172;BME280;5642;50.830;12.082;2024-03-08T04:24:50;99791.13;;;1.85;41.50
11172;BME280;5642;50.830;12.082;2024-03-08T04:27:16;99787.69;;;1.83;41.46
11172;BME280;5642;50.830;12.082;2024-03-08T04:29:43;99694.22;;;1.27;41.47
11172;BME280;5642;50.830;12.082;2024-03-08T04:32:09;99788.53;;;1.81;41.38
11172;BME280;5642;50.830;12.082;2024-03-08T04:34:36;99766.03;;;1.71;41.42
11172;BME280;5642;50.830;12.082;2024-03-08T04:37:03;99697.72;;;1.34;41.13
11172;BME280;5642;50.830;12.082;2024-03-08T04:39:33;99791.13;;;1.82;41.20
11172;BME280;5642;50.830;12.082;2024-03-08T04:42:02;99770.41;;;1.75;41.39
11172;BME280;5642;50.830;12.082;2024-03-08T04:44:38;99773.81;;;1.72;41.35
11172;BME280;5642;50.830;12.082;2024-03-08T04:47:05;99778.94;;;1.71;41.35
11172;BME280;5642;50.830;12.082;2024-03-08T04:49:35;99721.88;;;1.43;41.27
11172;BME280;5642;50.830;12.082;2024-03-08T04:52:05;99675.19;;;1.19;41.16
11172;BME280;5642;50.830;12.082;2024-03-08T04:54:33;99760.03;;;1.70;41.27
11172;BME280;5642;50.830;12.082;2024-03-08T04:57:01;99783.38;;;1.85;41.18
11172;BME280;5642;50.830;12.082;2024-03-08T04:59:28;99745.31;;;1.65;41.13
11172;BME280;5642;50.830;12.082;2024-03-08T05:01:54;99743.59;;;1.65;41.03
11172;BME280;5642;50.830;12.082;2024-03-08T05:04:21;99730.63;;;1.57;41.63
11172;BME280;5642;50.830;12.082;2024-03-08T05:06:48;99750.53;;;1.69;41.10
11172;BME280;5642;50.830;12.082;2024-03-08T05:09:21;99733.16;;;1.53;41.41
11172;BME280;5642;50.830;12.082;2024-03-08T05:11:52;99650.13;;;1.09;41.05
11172;BME280;5642;50.830;12.082;2024-03-08T05:14:19;99675.22;;;1.21;41.30
11172;BME280;5642;50.830;12.082;2024-03-08T05:16:47;99638.00;;;0.97;41.30
11172;BME280;5642;50.830;12.082;2024-03-08T05:19:18;99717.56;;;1.42;41.56
11172;BME280;5642;50.830;12.082;2024-03-08T05:21:56;99657.91;;;1.10;41.34
11172;BME280;5642;50.830;12.082;2024-03-08T05:24:23;99653.53;;;1.03;41.56
11172;BME280;5642;50.830;12.082;2024-03-08T05:27:05;99766.91;;;1.73;41.44
11172;BME280;5642;50.830;12.082;2024-03-08T05:29:33;99702.88;;;1.35;41.55
11172;BME280;5642;50.830;12.082;2024-03-08T05:32:00;99683.00;;;1.25;41.31
11172;BME280;5642;50.830;12.082;2024-03-08T05:34:29;99772.16;;;1.80;41.60
11172;BME280;5642;50.830;12.082;2024-03-08T05:36:56;99769.59;;;1.82;41.35
11172;BME280;5642;50.830;12.082;2024-03-08T05:39:32;99648.47;;;1.15;41.31
11172;BME280;5642;50.830;12.082;2024-03-08T05:41:59;99775.66;;;1.85;41.73
11172;BME280;5642;50.830;12.082;2024-03-08T05:44:26;99682.22;;;1.35;41.38
11172;BME280;5642;50.830;12.082;2024-03-08T05:46:54;99767.91;;;1.87;41.29
11172;BME280;5642;50.830;12.082;2024-03-08T05:49:23;99744.59;;;1.79;41.27
11172;BME280;5642;50.830;12.082;2024-03-08T05:51:51;99740.22;;;1.71;41.42
11172;BME280;5642;50.830;12.082;2024-03-08T05:54:24;99671.81;;;1.26;41.12
11172;BME280;5642;50.830;12.082;2024-03-08T05:56:54;99647.53;;;1.06;41.51
11172;BME280;5642;50.830;12.082;2024-03-08T05:59:26;99637.22;;;1.06;41.56
11172;BME280;5642;50.830;12.082;2024-03-08T06:01:53;99721.22;;;1.66;41.48
11172;BME280;5642;50.830;12.082;2024-03-08T06:04:18;99774.94;;;2.02;41.21
11172;BME280;5642;50.830;12.082;2024-03-08T06:06:46;99753.41;;;2.01;40.98
11172;BME280;5642;50.830;12.082;2024-03-08T06:09:13;99706.78;;;1.84;41.19
11172;BME280;5642;50.830;12.082;2024-03-08T06:11:54;99731.13;;;2.12;41.21
11172;BME280;5642;50.830;12.082;2024-03-08T06:14:23;99686.25;;;2.04;41.01
11172;BME280;5642;50.830;12.082;2024-03-08T06:16:50;99749.44;;;2.49;40.41
11172;BME280;5642;50.830;12.082;2024-03-08T06:19:17;99678.63;;;2.19;40.77
11172;BME280;5642;50.830;12.082;2024-03-08T06:21:51;99696.84;;;2.41;40.27
11172;BME280;5642;50.830;12.082;2024-03-08T06:24:20;99745.31;;;2.86;40.37
11172;BME280;5642;50.830;12.082;2024-03-08T06:26:51;99742.81;;;3.01;40.44
11172;BME280;5642;50.830;12.082;2024-03-08T06:29:24;99675.44;;;2.73;40.21
11172;BME280;5642;50.830;12.082;2024-03-08T06:31:54;99673.75;;;2.86;39.90
11172;BME280;5642;50.830;12.082;2024-03-08T06:34:20;99746.41;;;3.38;39.64
11172;BME280;5642;50.830;12.082;2024-03-08T06:36:47;99740.38;;;3.49;39.82
11172;BME280;5642;50.830;12.082;2024-03-08T06:39:15;99671.31;;;3.33;39.38
11172;BME280;5642;50.830;12.082;2024-03-08T06:41:45;99758.59;;;4.18;39.58
11172;BME280;5642;50.830;12.082;2024-03-08T06:44:12;99755.94;;;4.51;39.04
11172;BME280;5642;50.830;12.082;2024-03-08T06:46:38;99753.28;;;4.86;38.59
11172;BME280;5642;50.830;12.082;2024-03-08T06:49:04;99747.06;;;5.25;38.42
11172;BME280;5642;50.830;12.082;2024-03-08T06:51:30;99643.28;;;5.05;38.01
11172;BME280;5642;50.830;12.082;2024-03-08T06:53:57;99735.19;;;6.22;37.95
11172;BME280;5642;50.830;12.082;2024-03-08T06:56:24;99741.22;;;7.06;36.83
11172;BME280;5642;50.830;12.082;2024-03-08T06:58:51;99673.75;;;7.51;36.28
11172;BME280;5642;50.830;12.082;2024-03-08T07:01:18;99736.94;;;8.73;35.45
11172;BME280;5642;50.830;12.082;2024-03-08T07:03:45;99672.38;;;9.21;35.26
11172;BME280;5642;50.830;12.082;2024-03-08T07:06:12;99676.59;;;10.00;34.77
11172;BME280;5642;50.830;12.082;2024-03-08T07:08:45;99712.59;;;10.92;34.51
11172;BME280;5642;50.830;12.082;2024-03-08T07:11:11;99704.16;;;11.42;33.87
11172;BME280;5642;50.830;12.082;2024-03-08T07:13:38;99701.06;;;12.12;33.76
11172;BME280;5642;50.830;12.082;2024-03-08T07:16:05;99710.19;;;12.77;33.69
11172;BME280;5642;50.830;12.082;2024-03-08T07:18:33;99658.94;;;13.12;33.57
11172;BME280;5642;50.830;12.082;2024-03-08T07:21:00;99688.16;;;13.94;33.14
11172;BME280;5642;50.830;12.082;2024-03-08T07:23:27;99676.44;;;14.64;32.85
11172;BME280;5642;50.830;12.082;2024-03-08T07:26:17;99629.78;;;15.05;32.89
11172;BME280;5642;50.830;12.082;2024-03-08T07:28:44;99688.56;;;16.00;32.53
11172;BME280;5642;50.830;12.082;2024-03-08T07:31:11;99648.69;;;16.39;32.63
11172;BME280;5642;50.830;12.082;2024-03-08T07:33:42;99679.00;;;17.17;32.45
11172;BME280;5642;50.830;12.082;2024-03-08T07:36:10;99661.56;;;17.62;32.21
11172;BME280;5642;50.830;12.082;2024-03-08T07:38:38;99621.31;;;18.00;32.10
11172;BME280;5642;50.830;12.082;2024-03-08T07:41:07;99664.69;;;18.73;31.80
11172;BME280;5642;50.830;12.082;2024-03-08T07:43:33;99677.50;;;19.24;31.89
11172;BME280;5642;50.830;12.082;2024-03-08T07:46:07;99632.69;;;19.46;31.51
11172;BME280;5642;50.830;12.082;2024-03-08T07:48:36;99575.16;;;19.59;31.23
11172;BME280;5642;50.830;12.082;2024-03-08T07:51:03;99603.19;;;20.17;31.06
11172;BME280;5642;50.830;12.082;2024-03-08T07:53:31;99618.38;;;20.67;31.10
11172;BME280;5642;50.830;12.082;2024-03-08T07:55:57;99651.25;;;21.29;31.23
11172;BME280;5642;50.830;12.082;2024-03-08T07:58:24;99644.66;;;21.46;31.17
11172;BME280;5642;50.830;12.082;2024-03-08T08:00:56;99641.28;;;21.44;30.92
11172;BME280;5642;50.830;12.082;2024-03-08T08:03:24;99643.78;;;21.22;31.47
11172;BME280;5642;50.830;12.082;2024-03-08T08:05:52;99577.78;;;20.76;31.57
11172;BME280;5642;50.830;12.082;2024-03-08T08:08:20;99648.09;;;21.48;31.66
11172;BME280;5642;50.830;12.082;2024-03-08T08:10:47;99553.25;;;20.96;31.94
11172;BME280;5642;50.830;12.082;2024-03-08T08:13:14;99609.91;;;21.47;31.57
11172;BME280;5642;50.830;12.082;2024-03-08T08:15:41;99618.59;;;21.62;31.70
11172;BME280;5642;50.830;12.082;2024-03-08T08:18:07;99549.19;;;21.64;31.48
11172;BME280;5642;50.830;12.082;2024-03-08T08:20:36;99598.19;;;22.33;31.19
11172;BME280;5642;50.830;12.082;2024-03-08T08:23:03;99575.56;;;22.72;31.03
11172;BME280;5642;50.830;12.082;2024-03-08T08:25:29;99563.28;;;23.25;30.57
11172;BME280;5642;50.830;12.082;2024-03-08T08:27:56;99575.00;;;23.88;30.58
11172;BME280;5642;50.830;12.082;2024-03-08T08:30:22;99574.16;;;24.40;30.32
11172;BME280;5642;50.830;12.082;2024-03-08T08:32:48;99594.56;;;25.13;30.56
11172;BME280;5642;50.830;12.082;2024-03-08T08:35:14;99563.50;;;25.60;30.19
11172;BME280;5642;50.830;12.082;2024-03-08T08:37:42;99578.19;;;26.13;30.21
11172;BME280;5642;50.830;12.082;2024-03-08T08:40:12;99561.69;;;26.65;30.08
11172;BME280;5642;50.830;12.082;2024-03-08T08:42:44;99582.38;;;27.28;30.00
11172;BME280;5642;50.830;12.082;2024-03-08T08:45:11;99561.63;;;27.66;29.86
11172;BME280;5642;50.830;12.082;2024-03-08T08:47:46;99560.69;;;28.11;29.83
11172;BME280;5642;50.830;12.082;2024-03-08T08:50:15;99505.94;;;28.28;29.60
11172;BME280;5642;50.830;12.082;2024-03-08T08:52:46;99507.88;;;28.69;29.29
11172;BME280;5642;50.830;12.082;2024-03-08T08:55:12;99534.41;;;29.24;29.10
11172;BME280;5642;50.830;12.082;2024-03-08T08:57:41;99543.78;;;29.70;29.11
11172;BME280;5642;50.830;12.082;2024-03-08T09:00:08;99550.09;;;30.19;29.11
11172;BME280;5642;50.830;12.082;2024-03-08T09:02:38;99550.22;;;30.58;28.70
11172;BME280;5642;50.830;12.082;2024-03-08T09:05:05;99520.91;;;30.86;28.89
11172;BME280;5642;50.830;12.082;2024-03-08T09:07:31;99518.00;;;31.27;28.74
11172;BME280;5642;50.830;12.082;2024-03-08T09:10:00;99501.75;;;31.58;28.62
11172;BME280;5642;50.830;12.082;2024-03-08T09:12:26;99510.41;;;31.99;28.36
11172;BME280;5642;50.830;12.082;2024-03-08T09:14:54;99493.69;;;32.18;28.08
11172;BME280;5642;50.830;12.082;2024-03-08T09:17:24;99514.53;;;32.61;28.34
11172;BME280;5642;50.830;12.082;2024-03-08T09:19:51;99533.28;;;32.86;28.05
11172;BME280;5642;50.830;12.082;2024-03-08T09:22:17;99518.88;;;32.85;27.97
11172;BME280;5642;50.830;12.082;2024-03-08T09:24:45;99536.47;;;32.89;27.94
11172;BME280;5642;50.830;12.082;2024-03-08T09:27:14;99522.78;;;32.53;28.02
11172;BME280;5642;50.830;12.082;2024-03-08T09:29:40;99534.47;;;32.39;28.32
11172;BME280;5642;50.830;12.082;2024-03-08T09:32:07;99477.63;;;31.94;28.61
11172;BME280;5642;50.830;12.082;2024-03-08T09:34:33;99523.78;;;32.00;28.55
11172;BME280;5642;50.830;12.082;2024-03-08T09:37:00;99493.09;;;31.62;28.75
11172;BME280;5642;50.830;12.082;2024-03-08T09:39:26;99454.34;;;31.16;28.52
11172;BME280;5642;50.830;12.082;2024-03-08T09:41:57;99487.34;;;31.11;28.50
11172;BME280;5642;50.830;12.082;2024-03-08T09:44:23;99499.88;;;31.04;28.70
11172;BME280;5642;50.830;12.082;2024-03-08T09:46:50;99472.22;;;30.86;28.45
11172;BME280;5642;50.830;12.082;2024-03-08T09:49:21;99432.47;;;30.56;29.04
11172;BME280;5642;50.830;12.082;2024-03-08T09:51:50;99452.34;;;30.71;28.56
11172;BME280;5642;50.830;12.082;2024-03-08T09:54:18;99493.09;;;31.00;28.79
11172;BME280;5642;50.830;12.082;2024-03-08T09:56:51;99464.59;;;30.90;28.48
11172;BME280;5642;50.830;12.082;2024-03-08T09:59:19;99486.84;;;31.00;28.44
11172;BME280;5642;50.830;12.082;2024-03-08T10:02:13;99430.47;;;30.89;28.34
11172;BME280;5642;50.830;12.082;2024-03-08T10:04:44;99458.97;;;31.30;28.33
11172;BME280;5642;50.830;12.082;2024-03-08T10:07:12;99444.81;;;31.20;28.34
11172;BME280;5642;50.830;12.082;2024-03-08T10:09:41;99457.16;;;30.84;28.44
11172;BME280;5642;50.830;12.082;2024-03-08T10:12:16;99486.53;;;30.95;28.36
11172;BME280;5642;50.830;12.082;2024-03-08T10:14:47;99427.44;;;30.36;28.56
11172;BME280;5642;50.830;12.082;2024-03-08T10:17:14;99478.63;;;30.54;28.77
11172;BME280;5642;50.830;12.082;2024-03-08T10:19:50;99425.19;;;29.77;28.43
11172;BME280;5642;50.830;12.082;2024-03-08T10:22:18;99438.69;;;29.61;28.77
11172;BME280;5642;50.830;12.082;2024-03-08T10:24:48;99399.84;;;29.05;28.61
11172;BME280;5642;50.830;12.082;2024-03-08T10:27:17;99436.38;;;28.91;28.88
11172;BME280;5642;50.830;12.082;2024-03-08T10:29:48;99439.63;;;28.27;29.29
11172;BME280;5642;50.830;12.082;2024-03-08T10:32:15;99438.31;;;27.87;29.58
11172;BME280;5642;50.830;12.082;2024-03-08T10:34:44;99433.00;;;27.70;29.21
11172;BME280;5642;50.830;12.082;2024-03-08T10:37:21;99398.06;;;27.78;29.20
11172;BME280;5642;50.830;12.082;2024-03-08T10:40:02;99442.13;;;28.28;29.17
11172;BME280;5642;50.830;12.082;2024-03-08T10:42:58;99367.91;;;28.26;28.62
11172;BME280;5642;50.830;12.082;2024-03-08T10:48:10;99415.31;;;28.95;28.67
11172;BME280;5642;50.830;12.082;2024-03-08T10:50:44;99429.34;;;29.23;28.39
11172;BME280;5642;50.830;12.082;2024-03-08T10:53:17;99413.50;;;29.03;28.42
11172;BME280;5642;50.830;12.082;2024-03-08T10:55:49;99411.31;;;28.99;28.57
11172;BME280;5642;50.830;12.082;2024-03-08T10:58:17;99436.00;;;28.86;28.32
11172;BME280;5642;50.830;12.082;2024-03-08T11:00:52;99385.75;;;28.27;28.51
11172;BME280;5642;50.830;12.082;2024-03-08T11:03:53;99433.25;;;28.36;28.50
11172;BME280;5642;50.830;12.082;2024-03-08T11:06:31;99433.06;;;28.29;28.77
11172;BME280;5642;50.830;12.082;2024-03-08T11:09:31;99377.31;;;27.96;28.66
11172;BME280;5642;50.830;12.082;2024-03-08T11:12:28;99356.06;;;27.93;28.46
11172;BME280;5642;50.830;12.082;2024-03-08T11:15:11;99342.50;;;28.02;28.16
11172;BME280;5642;50.830;12.082;2024-03-08T11:17:40;99408.56;;;28.40;28.06
11172;BME280;5642;50.830;12.082;2024-03-08T11:20:11;99385.63;;;28.11;28.10
11172;BME280;5642;50.830;12.082;2024-03-08T11:23:07;99324.00;;;27.74;27.83
11172;BME280;5642;50.830;12.082;2024-03-08T11:25:39;99305.00;;;27.49;27.96
11172;BME280;5642;50.830;12.082;2024-03-08T11:28:19;99324.50;;;27.51;27.70
11172;BME280;5642;50.830;12.082;2024-03-08T11:33:30;99345.25;;;27.15;27.73
11172;BME280;5642;50.830;12.082;2024-03-08T11:36:09;99372.84;;;27.17;27.79
11172;BME280;5642;50.830;12.082;2024-03-08T11:38:45;99377.13;;;26.65;28.07
11172;BME280;5642;50.830;12.082;2024-03-08T11:41:25;99344.91;;;26.10;28.26
11172;BME280;5642;50.830;12.082;2024-03-08T11:44:18;99326.44;;;25.51;27.93
11172;BME280;5642;50.830;12.082;2024-03-08T11:46:46;99363.88;;;25.33;27.81
11172;BME280;5642;50.830;12.082;2024-03-08T11:49:16;99305.88;;;24.75;27.69
11172;BME280;5642;50.830;12.082;2024-03-08T11:51:43;99343.25;;;24.57;27.27
11172;BME280;5642;50.830;12.082;2024-03-08T11:54:11;99343.19;;;24.38;26.51
11172;BME280;5642;50.830;12.082;2024-03-08T11:56:47;99286.97;;;23.58;25.94
11172;BME280;5642;50.830;12.082;2024-03-08T11:59:13;99352.53;;;23.41;25.76
11172;BME280;5642;50.830;12.082;2024-03-08T12:01:41;99275.06;;;22.24;25.75
11172;BME280;5642;50.830;12.082;2024-03-08T12:04:11;99324.78;;;21.59;26.19
11172;BME280;5642;50.830;12.082;2024-03-08T12:06:40;99271.63;;;20.41;26.41
11172;BME280;5642;50.830;12.082;2024-03-08T12:09:13;99327.72;;;19.89;26.77
11172;BME280;5642;50.830;12.082;2024-03-08T12:11:41;99321.72;;;18.97;27.20
11172;BME280;5642;50.830;12.082;2024-03-08T12:14:09;99265.22;;;17.87;27.96
11172;BME280;5642;50.830;12.082;2024-03-08T12:16:37;99267.41;;;17.24;28.07
11172;BME280;5642;50.830;12.082;2024-03-08T12:19:04;99255.59;;;16.71;28.09
11172;BME280;5642;50.830;12.082;2024-03-08T12:21:32;99306.47;;;16.61;28.27
11172;BME280;5642;50.830;12.082;2024-03-08T12:24:10;99326.59;;;16.32;28.70
11172;BME280;5642;50.830;12.082;2024-03-08T12:26:39;99326.59;;;16.00;28.53
11172;BME280;5642;50.830;12.082;2024-03-08T12:31:55;99316.66;;;15.40;28.90
11172;BME280;5642;50.830;12.082;2024-03-08T12:34:24;99280.16;;;14.98;28.94
11172;BME280;5642;50.830;12.082;2024-03-08T12:36:54;99313.44;;;15.00;28.89
11172;BME280;5642;50.830;12.082;2024-03-08T12:39:22;99253.16;;;14.58;28.81
11172;BME280;5642;50.830;12.082;2024-03-08T12:41:50;99287.84;;;14.68;28.70
11172;BME280;5642;50.830;12.082;2024-03-08T12:44:19;99291.41;;;14.67;29.13
11172;BME280;5642;50.830;12.082;2024-03-08T12:46:48;99280.69;;;14.53;29.07
11172;BME280;5642;50.830;12.082;2024-03-08T12:49:14;99269.53;;;14.47;29.10
11172;BME280;5642;50.830;12.082;2024-03-08T12:51:44;99285.28;;;14.49;29.04
11172;BME280;5642;50.830;12.082;2024-03-08T12:54:12;99256.28;;;14.30;29.11
11172;BME280;5642;50.830;12.082;2024-03-08T12:56:38;99184.44;;;13.92;29.13
11172;BME280;5642;50.830;12.082;2024-03-08T12:59:08;99192.97;;;13.97;29.10
11172;BME280;5642;50.830;12.082;2024-03-08T13:01:39;99221.19;;;14.13;28.98
11172;BME280;5642;50.830;12.082;2024-03-08T13:04:06;99231.03;;;14.26;28.96
11172;BME280;5642;50.830;12.082;2024-03-08T13:06:35;99235.38;;;14.27;29.13
11172;BME280;5642;50.830;12.082;2024-03-08T13:09:04;99218.25;;;14.19;29.21
11172;BME280;5642;50.830;12.082;2024-03-08T13:11:32;99189.31;;;14.00;29.16
11172;BME280;5642;50.830;12.082;2024-03-08T13:14:04;99204.84;;;14.06;29.06
11172;BME280;5642;50.830;12.082;2024-03-08T13:16:31;99197.69;;;14.08;29.20
11172;BME280;5642;50.830;12.082;2024-03-08T13:18:57;99144.59;;;13.81;29.15
11172;BME280;5642;50.830;12.082;2024-03-08T13:21:25;99142.88;;;13.80;29.18
11172;BME280;5642;50.830;12.082;2024-03-08T13:23:55;99209.97;;;14.26;29.15